Shubuta, MS (39360)

9:09 PM CDT on July 29, 2014 (GMT -0500)
Key (KMEI) Elev 308 ft | 32.33 °N, 88.75 °W | Change Station

Current weather conditions updated 11 minutes ago

Clear
Clear
74 °F
Feels Like 74 °F
N
10
Wind Variable Wind from North

Tomorrow is forecast to be nearly the same temperature as today.

Today
High -- | Low -- °F
--% Chance of Precip.
Yesterday
High -- | Low -- °F
Precip. -- in
6:08 AM 7:53 PM
Waxing Crescent, 9% visible
Pressure 30.04 in
Visibility 10.0 miles
Clouds Clear
Dew Point 57 °F
Humidity 55%
Rainfall 0.02 in
Snow Depth Not available.
UV 0 out of 12
Pollen 4.30 out of 12
Air Quality Not available.
Flu Activity Not available.
METAR KMEI 300158Z 01009KT 10SM CLR 23/14 A3005 RMK AO2 SLP171 T02330139

More Conditions Fewer Conditions

Pressure 30.04 in
Visibility 10.0 miles
Clouds Clear
Dew Point 57 °F
Humidity 55%
Rainfall 0.02 in
Snow Depth Not available.
UV 0 out of 12
Pollen 4.30 out of 12
Air Quality Not available.
Flu Activity Not available.
METAR KMEI 300158Z 01009KT 10SM CLR 23/14 A3005 RMK AO2 SLP171 T02330139

More Conditions Fewer Conditions

10-Day Weather Forecast

Almanac

Astronomy

Jul. 29, 2014 Rise Set
Actual Time 6:08 AM CDT 7:53 PM CDT
Civil Twilight 5:41 AM CDT 8:20 PM CDT
Nautical Twilight 5:09 AM CDT 8:52 PM CDT
Astronomical Twilight 4:35 AM CDT 9:26 PM CDT
Moon 8:32 AM CDT (7/29) 9:20 PM CDT (7/29)
Length of Visible Light 14h 38m
Length of Day
13h 45m
Tomorrow will be 1m 23s shorter.
Waxing Crescent, 9% of the Moon is Illuminated
Today
Waxing Crescent
Aug 3
First Quarter
Aug 10
Full
Aug 17
Last Quarter
Aug 25
New

Today's Extremes

State Highs State Lows

Community

WunderPhotos

Upload Photos

1,738,953 photos uploaded!

Nearby

Snow Depth

Station Depth Elevation
No new snow has been reported.

Earthquake Activity

City Distance Mag. Time & Date
No recent earthquake activity has been reported nearby.
Minimum magnitude displayed is 2.5.

Coastal Water Temperatures

Place Temperature
No Stations Reporting

Nearby Weather Stations

There are no personal weather stations in this area.